Kezdőlap
METAR-TAF:

METAR-TAF

Repülőterek :

Cazaux, Franciaország

földrajzi szélesség: 44-32N, földrajzi hosszúság: 001-08W, magasság: 25 m

Jelenlegi meteorológiai megfigyelések

A jelentés 23 perccel ezelõtt készült, 15:30 UTC
Délnyugati szél 4 kt
Hőmérséklet 15°C
Páratartalom 72%
Légköri nyomás 1008 hPa
Látótávolság 10 km, vagy több
felhőtlen 1500 m magasságban, és nincs gomolyfelhõ

METAR: LFBC 151530Z AUTO 22004KT CAVOK 15/10 Q1008

Idő: 16:53 (15:53 UTC)


TAF: hiányzik

Meteorológiai megfigyelések és előrejelzések több, mint 4000 repülőtéren (METAR és TAF jelentéseket).

A térképen piros és sárga pontok jelzik az elérhető meteorológiai állomásokat.

Mozgassa az egeret a pont fölött, hogy megjelenjen az állomás neve.

Azután kattintson az időjárási megfigyelések és előrejelzések megtekintéséhez.

A térkép megváltoztatása: kattintson a fekete keresztel jelölt zöld gombra ráközelítéshez, a vonallal jelölt zöld gombra távolításhoz, vagy a zöld nyilakra a szomszédos térképek eléréséhez.


METAR-TAF: